Time;durP1;ratioP1;P1;durP2;ratioP2;P2;SDS_P1;SDS_P2;PMS_P1;PMS_P2;Temp;Humidity;BMP_temperature;BMP_pressure;BME280_temperature;BME280_humidity;BME280_pressure;Samples;Min_cycle;Max_cycle;Signal;HPM_P1;HPM_P2
2022/05/01 00:00:20;;;;;;;33.67;23.00;;;;;;;10.10;100.00;98636.88;5066024;28;20219;-68
2022/05/01 00:02:47;;;;;;;32.00;22.07;;;;;;;9.99;100.00;98641.06;5073009;28;20245;-68
2022/05/01 00:05:14;;;;;;;30.97;21.97;;;;;;;9.98;100.00;98632.28;5072734;28;20226;-68
2022/05/01 00:07:40;;;;;;;30.93;20.87;;;;;;;9.95;100.00;98635.13;5062702;28;20562;-68
2022/05/01 00:10:09;;;;;;;33.00;23.13;;;;;;;9.98;100.00;98634.91;5062134;28;20218;-68
2022/05/01 00:12:36;;;;;;;29.83;20.70;;;;;;;9.98;100.00;98634.91;5061648;28;20217;-68
2022/05/01 00:15:05;;;;;;;31.40;20.97;;;;;;;9.99;100.00;98631.38;5072744;28;20214;-68
2022/05/01 00:17:31;;;;;;;32.23;21.43;;;;;;;9.96;100.00;98635.94;5072992;28;20284;-68
2022/05/01 00:19:58;;;;;;;29.97;21.57;;;;;;;9.97;100.00;98632.41;5067599;28;20214;-69
2022/05/01 00:22:24;;;;;;;30.30;22.63;;;;;;;9.98;100.00;98628.81;5076774;28;20239;-67
2022/05/01 00:24:51;;;;;;;32.13;21.10;;;;;;;9.98;100.00;98631.44;5077012;28;20214;-68
2022/05/01 00:27:17;;;;;;;30.47;21.43;;;;;;;10.01;100.00;98623.34;5075407;28;20223;-69
2022/05/01 00:29:44;;;;;;;33.90;22.93;;;;;;;9.94;100.00;98627.28;5076990;28;20214;-69
2022/05/01 00:32:12;;;;;;;30.00;22.03;;;;;;;9.90;100.00;98628.41;5076690;28;20687;-68
2022/05/01 00:37:22;;;;;;;31.13;21.07;;;;;;;9.85;100.00;98622.56;5076582;28;20260;-68
2022/05/01 00:39:49;;;;;;;27.60;19.90;;;;;;;9.79;100.00;98622.91;5076668;28;20208;-67
2022/05/01 00:42:17;;;;;;;30.60;20.87;;;;;;;9.78;100.00;98626.50;5076271;28;20259;-68
2022/05/01 00:44:43;;;;;;;29.17;20.80;;;;;;;9.81;100.00;98631.59;5076665;28;20222;-68
2022/05/01 00:47:10;;;;;;;29.10;20.67;;;;;;;9.81;100.00;98626.31;5076249;28;20227;-68
2022/05/01 00:49:38;;;;;;;27.63;20.50;;;;;;;9.81;100.00;98626.31;5076357;28;20246;-68
2022/05/01 00:52:08;;;;;;;29.57;20.43;;;;;;;9.80;100.00;98627.25;5074894;28;20208;-68
2022/05/01 00:54:37;;;;;;;29.57;19.27;;;;;;;9.85;100.00;98626.03;5076304;28;20214;-68
2022/05/01 00:57:06;;;;;;;26.57;18.97;;;;;;;9.88;100.00;98623.22;5076046;28;20210;-68
2022/05/01 00:59:34;;;;;;;28.50;20.57;;;;;;;9.90;100.00;98625.78;5070384;28;20222;-68
2022/05/01 01:02:01;;;;;;;27.97;19.87;;;;;;;9.93;100.00;98622.94;5071082;28;20239;-68
2022/05/01 01:04:27;;;;;;;27.53;19.13;;;;;;;9.93;100.00;98620.31;5069026;28;20214;-68
2022/05/01 01:06:55;;;;;;;26.97;19.90;;;;;;;9.95;100.00;98623.69;5069277;28;20215;-69
2022/05/01 01:09:22;;;;;;;26.83;20.37;;;;;;;9.96;100.00;98628.88;5070985;28;20691;-69
2022/05/01 01:12:53;;;;;;;29.90;20.27;;;;;;;9.98;100.00;98618.25;5071185;28;20224;-68
2022/05/01 01:14:35;;;;;;;28.53;19.13;;;;;;;9.96;100.00;98625.38;5075847;28;20219;-68
2022/05/01 01:17:01;;;;;;;28.10;20.43;;;;;;;9.97;100.00;98624.47;5075660;28;20712;-68
2022/05/01 01:19:28;;;;;;;26.70;19.13;;;;;;;9.99;100.00;98619.94;5073995;28;20673;-68
2022/05/01 01:21:56;;;;;;;30.80;21.30;;;;;;;9.96;100.00;98625.38;5075836;28;20238;-69
2022/05/01 01:24:22;;;;;;;29.90;20.93;;;;;;;9.99;100.00;98619.94;5075778;28;20218;-68
2022/05/01 01:26:49;;;;;;;27.97;19.80;;;;;;;10.00;100.00;98617.22;5066671;28;20219;-68
2022/05/01 01:32:00;;;;;;;29.30;19.90;;;;;;;9.99;100.00;98614.66;5074261;28;20219;-68
2022/05/01 01:34:35;;;;;;;28.93;20.67;;;;;;;9.98;100.00;98621.72;5075461;28;20227;-68
2022/05/01 01:37:06;;;;;;;28.27;20.83;;;;;;;9.97;100.00;98619.19;5075585;28;20233;-68
2022/05/01 01:39:33;;;;;;;29.67;20.67;;;;;;;9.99;100.00;98619.94;5075597;28;20215;-68
2022/05/01 01:42:05;;;;;;;33.97;23.03;;;;;;;9.95;100.00;98613.13;5075445;28;20571;-67
2022/05/01 01:44:34;;;;;;;30.10;21.70;;;;;;;9.92;100.00;98614.16;5063008;28;20224;-68
2022/05/01 01:47:01;;;;;;;31.23;21.50;;;;;;;9.90;100.00;98610.78;5075510;28;20214;-67
2022/05/01 01:49:27;;;;;;;31.43;22.37;;;;;;;9.90;100.00;98609.94;5075575;28;20212;-67
2022/05/01 01:51:54;;;;;;;29.80;20.13;;;;;;;9.87;100.00;98604.81;5075555;28;20207;-68
2022/05/01 01:54:22;;;;;;;29.23;20.37;;;;;;;9.87;100.00;98603.03;5075395;28;20215;-68
2022/05/01 01:56:48;;;;;;;29.87;21.00;;;;;;;9.86;100.00;98605.75;5074950;28;20214;-68
2022/05/01 01:59:15;;;;;;;30.13;21.80;;;;;;;9.84;100.00;98597.09;5075193;28;20224;-68
2022/05/01 02:01:43;;;;;;;30.87;21.07;;;;;;;9.81;100.00;98599.91;5075122;28;20212;-67
2022/05/01 02:04:10;;;;;;;30.50;22.30;;;;;;;9.81;100.00;98599.91;5075308;28;20215;-67
2022/05/01 02:06:37;;;;;;;30.77;22.30;;;;;;;9.82;100.00;98597.19;5074969;28;20264;-68
2022/05/01 02:09:06;;;;;;;33.60;21.60;;;;;;;9.85;100.00;98593.50;5074909;28;20215;-67
2022/05/01 02:11:34;;;;;;;31.00;21.93;;;;;;;9.86;100.00;98595.22;5073063;28;20218;-67
2022/05/01 02:14:01;;;;;;;32.47;21.80;;;;;;;9.88;100.00;98593.31;5074891;28;20227;-67
2022/05/01 02:16:27;;;;;;;36.57;23.17;;;;;;;9.87;100.00;98583.69;5074568;28;20254;-68
2022/05/01 02:18:54;;;;;;;37.30;24.37;;;;;;;9.87;100.00;98587.22;5074815;28;20223;-68
2022/05/01 02:21:35;;;;;;;34.47;22.50;;;;;;;9.86;100.00;98587.28;5074839;28;20215;-68
2022/05/01 02:24:03;;;;;;;33.03;22.37;;;;;;;9.84;100.00;98581.25;5070414;28;20247;-68
2022/05/01 02:26:30;;;;;;;33.87;21.87;;;;;;;9.81;100.00;98589.34;5074772;28;20218;-68
2022/05/01 02:28:59;;;;;;;31.93;21.57;;;;;;;9.78;100.00;98590.38;5074804;28;20218;-68
2022/05/01 02:31:26;;;;;;;33.40;21.50;;;;;;;9.78;100.00;98589.53;5074670;28;20219;-68
2022/05/01 02:33:53;;;;;;;34.50;22.73;;;;;;;9.78;100.00;98594.81;5074598;28;20212;-68
2022/05/01 02:36:20;;;;;;;31.83;21.80;;;;;;;9.78;100.00;98587.72;5072653;28;20220;-68
2022/05/01 02:38:46;;;;;;;32.17;21.40;;;;;;;9.76;100.00;98586.13;5074313;28;20692;-68
2022/05/01 02:41:13;;;;;;;34.00;22.07;;;;;;;9.72;100.00;98580.16;5067273;28;20244;-68
2022/05/01 02:43:39;;;;;;;36.37;23.33;;;;;;;9.77;100.00;98572.84;5073943;28;20250;-68
2022/05/01 02:46:07;;;;;;;32.07;21.47;;;;;;;9.68;100.00;98583.09;5074160;28;20227;-68
2022/05/01 02:48:33;;;;;;;35.43;22.43;;;;;;;9.67;100.00;98581.41;5074267;28;20215;-68
2022/05/01 02:51:04;;;;;;;35.30;21.90;;;;;;;9.65;100.00;98576.19;5073984;28;20212;-68
2022/05/01 02:53:31;;;;;;;33.00;21.00;;;;;;;9.60;100.00;98574.78;5073934;28;20408;-68
2022/05/01 02:56:00;;;;;;;36.80;22.87;;;;;;;9.57;100.00;98574.94;5074193;28;20227;-68
2022/05/01 02:58:26;;;;;;;33.73;22.87;;;;;;;9.62;100.00;98568.44;5073829;28;20222;-68
2022/05/01 03:00:53;;;;;;;36.60;24.37;;;;;;;9.58;100.00;98572.22;5073642;28;20670;-68
2022/05/01 03:03:21;;;;;;;33.67;22.37;;;;;;;9.58;100.00;98572.22;5072251;28;20242;-69
2022/05/01 03:05:47;;;;;;;32.70;21.87;;;;;;;9.52;100.00;98582.28;5073583;28;20673;-68
2022/05/01 03:08:14;;;;;;;32.97;22.83;;;;;;;9.47;100.00;98573.75;5073993;28;20576;-68
2022/05/01 03:10:41;;;;;;;35.33;22.60;;;;;;;9.45;100.00;98575.66;5073770;28;20218;-68
2022/05/01 03:13:08;;;;;;;37.87;23.70;;;;;;;9.52;100.00;98571.72;5073831;28;20595;-68
2022/05/01 03:15:34;;;;;;;32.67;22.43;;;;;;;9.43;100.00;98574.91;5073501;28;20696;-68
2022/05/01 03:23:30;;;;;;;35.00;22.33;;;;;;;9.44;100.00;98563.41;5073246;28;20319;-68
2022/05/01 03:25:58;;;;;;;35.87;23.13;;;;;;;9.40;100.00;98556.59;5073584;28;20584;-68
2022/05/01 03:28:24;;;;;;;33.20;21.57;;;;;;;9.42;100.00;98560.84;5071737;28;20222;-68
2022/05/01 03:30:51;;;;;;;33.53;22.87;;;;;;;9.50;100.00;98563.03;5073248;28;20219;-68
2022/05/01 03:33:21;;;;;;;37.10;24.17;;;;;;;9.48;100.00;98565.75;5073613;28;20621;-68
2022/05/01 03:35:49;;;;;;;36.20;21.53;;;;;;;9.37;100.00;98567.34;5073274;28;20211;-68
2022/05/01 03:38:17;;;;;;;34.20;22.33;;;;;;;9.46;100.00;98561.50;5073350;28;20225;-68
2022/05/01 03:40:47;;;;;;;33.73;22.07;;;;;;;9.45;100.00;98559.81;5073099;28;20261;-68
2022/05/01 03:43:14;;;;;;;33.50;23.10;;;;;;;9.46;100.00;98561.50;5062812;28;20247;-67
2022/05/01 03:45:41;;;;;;;32.33;22.07;;;;;;;9.42;100.00;98560.00;5073029;28;20233;-67
2022/05/01 03:48:07;;;;;;;31.23;20.90;;;;;;;9.40;100.00;98557.44;5073313;28;20212;-67
2022/05/01 03:50:34;;;;;;;35.20;21.43;;;;;;;9.49;100.00;98564.00;5073480;28;20222;-67
2022/05/01 03:53:04;;;;;;;35.70;23.10;;;;;;;9.49;100.00;98569.25;5072939;28;20222;-67
2022/05/01 03:55:31;;;;;;;34.57;21.67;;;;;;;9.48;100.00;98559.66;5068258;28;20577;-68
2022/05/01 03:57:58;;;;;;;33.27;22.40;;;;;;;9.47;100.00;98552.66;5070350;28;20725;-68
2022/05/01 04:00:25;;;;;;;32.70;22.83;;;;;;;9.54;100.00;98569.84;5073127;28;20298;-68
2022/05/01 04:02:52;;;;;;;30.80;21.40;;;;;;;9.54;100.00;98567.22;5061938;28;20246;-68
2022/05/01 04:05:18;;;;;;;31.53;20.80;;;;;;;9.56;100.00;98567.97;5073251;28;20225;-68
2022/05/01 04:07:45;;;;;;;30.70;20.40;;;;;;;9.52;100.00;98561.16;5073167;28;20241;-68
2022/05/01 04:10:13;;;;;;;33.03;22.73;;;;;;;9.49;100.00;98566.63;5072833;28;20223;-69
2022/05/01 04:12:41;;;;;;;34.67;22.87;;;;;;;9.50;100.00;98578.88;5073120;28;20220;-67
2022/05/01 04:15:08;;;;;;;32.30;22.23;;;;;;;9.44;100.00;98574.81;5072995;28;20234;-68
2022/05/01 04:17:38;;;;;;;30.73;21.57;;;;;;;9.48;100.00;98570.22;5072698;28;20251;-68
2022/05/01 04:20:08;;;;;;;32.90;22.23;;;;;;;9.51;100.00;98564.75;5072053;28;20314;-69
2022/05/01 04:22:37;;;;;;;32.73;22.13;;;;;;;9.51;100.00;98564.75;5062198;28;20239;-68
2022/05/01 04:25:05;;;;;;;31.90;23.40;;;;;;;9.50;100.00;98568.31;5072883;28;20257;-69
2022/05/01 04:27:32;;;;;;;32.33;21.70;;;;;;;9.46;100.00;98566.78;5072940;28;20217;-67
2022/05/01 04:29:59;;;;;;;31.67;21.53;;;;;;;9.45;100.00;98562.47;5072779;28;20225;-69
2022/05/01 04:32:26;;;;;;;29.73;21.07;;;;;;;9.38;100.00;98569.91;5072899;28;20214;-70
2022/05/01 04:34:53;;;;;;;36.07;23.17;;;;;;;9.26;100.00;98561.81;5072581;28;20211;-68
2022/05/01 04:37:19;;;;;;;31.07;22.50;;;;;;;9.13;100.00;98564.28;5072762;28;20212;-68
2022/05/01 04:39:46;;;;;;;31.83;22.23;;;;;;;9.01;100.00;98570.25;5072408;28;20219;-68
2022/05/01 04:42:12;;;;;;;32.07;21.10;;;;;;;9.04;100.00;98574.50;5061764;28;20261;-69
2022/05/01 04:44:40;;;;;;;35.67;22.77;;;;;;;9.17;100.00;98571.09;5072671;28;20252;-68
2022/05/01 04:47:06;;;;;;;31.93;22.10;;;;;;;9.27;100.00;98588.13;5071179;28;20218;-68
2022/05/01 04:49:33;;;;;;;31.57;21.23;;;;;;;9.40;100.00;98580.34;5072728;28;20215;-68
2022/05/01 04:52:00;;;;;;;32.60;22.17;;;;;;;9.48;100.00;98586.88;5072578;28;20215;-68
2022/05/01 04:54:28;;;;;;;31.87;21.47;;;;;;;9.51;100.00;98589.34;5072566;28;20233;-68
2022/05/01 04:57:09;;;;;;;30.93;21.43;;;;;;;9.49;100.00;98588.56;5072539;28;20218;-68
2022/05/01 04:59:35;;;;;;;32.13;21.23;;;;;;;9.54;100.00;98581.25;5072383;28;20262;-68
2022/05/01 05:02:04;;;;;;;32.33;22.43;;;;;;;9.63;100.00;98595.69;5072550;28;20214;-68
2022/05/01 05:04:30;;;;;;;32.63;21.63;;;;;;;9.65;100.00;98599.94;5072273;28;20240;-67
2022/05/01 05:06:57;;;;;;;37.53;23.20;;;;;;;9.62;100.00;98605.38;5073807;28;20211;-68
2022/05/01 05:12:09;;;;;;;33.10;21.83;;;;;;;9.59;100.00;98597.66;5071426;28;20226;-68
2022/05/01 05:14:35;;;;;;;32.93;22.37;;;;;;;9.60;100.00;98603.81;5075804;28;20215;-70
2022/05/01 05:17:06;;;;;;;31.20;20.90;;;;;;;9.64;100.00;98603.53;5075853;28;20219;-69
2022/05/01 05:19:33;;;;;;;31.17;21.90;;;;;;;9.74;100.00;98609.13;5075649;28;20223;-68
2022/05/01 05:21:59;;;;;;;34.87;21.10;;;;;;;9.76;100.00;98601.94;5075955;28;20216;-69
2022/05/01 05:24:26;;;;;;;33.73;21.97;;;;;;;9.75;100.00;98600.25;5075466;28;20242;-68
2022/05/01 05:26:52;;;;;;;34.30;21.67;;;;;;;9.86;100.00;98603.13;5075466;28;20672;-68
2022/05/01 05:29:19;;;;;;;31.17;20.80;;;;;;;9.86;100.00;98598.69;5075895;28;20605;-68
2022/05/01 05:31:45;;;;;;;32.10;21.77;;;;;;;9.93;100.00;98607.97;5075783;28;20215;-68
2022/05/01 05:34:13;;;;;;;29.53;20.90;;;;;;;9.94;100.00;98609.66;5075754;28;20230;-67
2022/05/01 05:36:39;;;;;;;34.17;21.97;;;;;;;10.04;100.00;98608.19;5075508;28;20221;-68
2022/05/01 05:39:06;;;;;;;28.37;20.13;;;;;;;10.06;100.00;98611.59;5074027;28;20218;-68
2022/05/01 05:41:32;;;;;;;28.30;21.10;;;;;;;10.09;100.00;98607.94;5075571;28;20218;-68
2022/05/01 05:43:59;;;;;;;31.00;20.80;;;;;;;10.16;100.00;98611.91;5075072;28;20259;-68
2022/05/01 05:46:25;;;;;;;30.97;20.57;;;;;;;10.23;100.00;98606.16;5064491;28;20684;-68
2022/05/01 05:48:52;;;;;;;31.03;20.27;;;;;;;10.29;100.00;98610.22;5075057;28;20709;-68
2022/05/01 05:51:20;;;;;;;27.53;19.90;;;;;;;10.35;100.00;98610.69;5075606;28;20583;-68
2022/05/01 05:53:46;;;;;;;26.07;18.63;;;;;;;10.42;100.00;98619.09;5075391;28;20236;-68
2022/05/01 05:56:12;;;;;;;29.67;20.00;;;;;;;10.45;100.00;98613.66;5075264;28;20236;-68
2022/05/01 05:58:39;;;;;;;25.87;18.90;;;;;;;10.42;100.00;98616.47;5075211;28;20585;-68
2022/05/01 06:01:05;;;;;;;28.63;19.30;;;;;;;10.48;100.00;98610.78;5075164;28;20591;-68
2022/05/01 06:03:32;;;;;;;28.30;20.27;;;;;;;10.43;100.00;98616.38;5074913;28;20250;-68
2022/05/01 06:05:59;;;;;;;26.07;18.53;;;;;;;10.44;100.00;98611.91;5073540;28;20298;-67
2022/05/01 06:08:26;;;;;;;26.30;18.93;;;;;;;10.48;100.00;98619.59;5074961;28;20216;-68
2022/05/01 06:10:53;;;;;;;29.20;18.63;;;;;;;10.54;100.00;98621.00;5074798;28;20228;-68
2022/05/01 06:13:19;;;;;;;28.20;19.40;;;;;;;10.63;100.00;98618.63;5074896;28;20706;-67
2022/05/01 06:15:46;;;;;;;27.37;19.23;;;;;;;10.66;100.00;98607.03;5074856;28;20712;-68
2022/05/01 06:18:13;;;;;;;30.60;19.87;;;;;;;10.74;100.00;98615.31;5074133;28;20260;-68
2022/05/01 06:20:39;;;;;;;25.03;18.57;;;;;;;10.90;100.00;98616.06;5075084;28;20222;-68
2022/05/01 06:23:06;;;;;;;26.30;18.93;;;;;;;10.99;100.00;98611.06;5074761;28;20209;-68
2022/05/01 06:25:38;;;;;;;24.97;19.43;;;;;;;11.16;100.00;98617.91;5074617;28;20213;-68
2022/05/01 06:28:05;;;;;;;26.47;19.20;;;;;;;11.25;100.00;98617.34;5074712;28;20218;-69
2022/05/01 06:30:32;;;;;;;30.43;19.10;;;;;;;11.31;100.00;98617.78;5072794;28;20691;-67
2022/05/01 06:32:58;;;;;;;24.30;17.53;;;;;;;11.40;100.00;98613.69;5074761;28;20238;-68
2022/05/01 06:35:31;;;;;;;25.73;18.23;;;;;;;11.51;100.00;98620.00;5074479;28;20208;-67
2022/05/01 06:37:57;;;;;;;22.30;17.50;;;;;;;11.64;100.00;98620.06;5074615;28;20219;-67
2022/05/01 06:40:24;;;;;;;23.10;17.67;;;;;;;11.79;99.50;98616.41;5074342;28;20236;-68
2022/05/01 06:42:52;;;;;;;24.33;18.47;;;;;;;11.97;98.56;98616.03;5074226;28;20256;-68
2022/05/01 06:45:19;;;;;;;24.53;18.10;;;;;;;12.11;97.62;98615.09;5074208;28;20249;-68
2022/05/01 06:47:45;;;;;;;25.23;17.37;;;;;;;12.22;97.29;98612.59;5074384;28;20222;-67
2022/05/01 06:50:12;;;;;;;23.17;16.80;;;;;;;12.29;95.53;98613.84;5074092;28;20225;-68
2022/05/01 06:52:38;;;;;;;22.97;17.90;;;;;;;12.29;94.42;98608.56;5074271;28;20249;-68
2022/05/01 06:55:06;;;;;;;23.77;16.87;;;;;;;12.29;94.26;98613.84;5073917;28;20225;-68
2022/05/01 06:57:32;;;;;;;23.83;17.57;;;;;;;12.43;93.67;98616.41;5072481;28;20214;-67
2022/05/01 07:00:00;;;;;;;24.60;18.07;;;;;;;12.54;90.98;98619.16;5073693;28;20215;-69
2022/05/01 07:02:26;;;;;;;22.97;16.70;;;;;;;12.40;92.07;98621.94;5073944;28;20577;-68
2022/05/01 07:04:53;;;;;;;21.67;16.27;;;;;;;12.41;93.05;98620.97;5073862;28;20249;-69
2022/05/01 07:07:20;;;;;;;20.80;16.17;;;;;;;12.53;93.38;98622.78;5073948;28;20219;-68
2022/05/01 07:09:46;;;;;;;21.20;16.50;;;;;;;12.65;93.31;98625.41;5073743;28;20219;-68
2022/05/01 07:12:13;;;;;;;23.33;17.30;;;;;;;12.64;91.21;98625.50;5073920;28;20222;-69
2022/05/01 07:14:39;;;;;;;20.87;15.30;;;;;;;12.65;91.10;98624.56;5062847;28;20215;-69
2022/05/01 07:17:07;;;;;;;22.13;16.30;;;;;;;12.75;91.32;98628.25;5063015;28;20208;-70
2022/05/01 07:19:34;;;;;;;22.63;16.87;;;;;;;12.78;89.18;98631.53;5063253;28;20232;-69
2022/05/01 07:22:00;;;;;;;22.13;16.40;;;;;;;12.72;89.56;98629.31;5072998;28;20226;-69
2022/05/01 07:24:27;;;;;;;22.50;16.30;;;;;;;12.77;90.48;98631.69;5070985;28;20246;-68
2022/05/01 07:26:54;;;;;;;19.93;16.30;;;;;;;12.88;90.31;98634.41;5070707;28;20210;-68
2022/05/01 07:29:20;;;;;;;22.13;17.00;;;;;;;12.94;88.99;98633.97;5066985;28;20637;-68
2022/05/01 07:31:47;;;;;;;20.77;15.03;;;;;;;12.91;89.17;98628.91;5057609;28;20214;-68
2022/05/01 07:34:14;;;;;;;22.60;14.90;;;;;;;12.99;89.22;98632.75;5057121;28;20201;-67
2022/05/01 07:36:41;;;;;;;21.50;15.23;;;;;;;13.09;88.01;98624.97;5057185;28;20225;-69
2022/05/01 07:39:07;;;;;;;20.73;15.63;;;;;;;13.17;88.27;98630.56;5061472;28;20222;-68
2022/05/01 07:41:36;;;;;;;20.60;15.33;;;;;;;13.17;89.03;98626.13;5058459;28;20225;-68
2022/05/01 07:44:02;;;;;;;19.37;14.37;;;;;;;13.26;89.90;98622.78;5060024;28;20278;-68
2022/05/01 07:46:29;;;;;;;19.37;15.17;;;;;;;13.39;90.50;98620.09;5056680;28;20219;-69
2022/05/01 07:48:55;;;;;;;18.40;14.73;;;;;;;13.55;89.86;98615.34;5069183;28;20216;-67
2022/05/01 07:51:23;;;;;;;18.67;15.20;;;;;;;13.69;89.17;98623.19;5068231;28;20220;-67
2022/05/01 07:53:49;;;;;;;20.73;16.37;;;;;;;13.77;86.20;98616.34;5069188;28;20600;-68
2022/05/01 07:56:16;;;;;;;19.53;15.37;;;;;;;13.80;85.11;98621.41;5069692;28;20223;-69
2022/05/01 07:58:42;;;;;;;19.90;14.63;;;;;;;13.84;85.26;98616.72;5069365;28;20220;-68
2022/05/01 08:01:09;;;;;;;18.60;14.53;;;;;;;13.96;86.18;98621.09;5070252;28;20217;-69
2022/05/01 08:06:21;;;;;;;17.67;13.90;;;;;;;14.03;86.05;98622.34;5058029;28;20217;-69
2022/05/01 08:08:49;;;;;;;20.40;16.13;;;;;;;14.08;85.88;98625.50;5069908;28;20216;-68
2022/05/01 08:11:16;;;;;;;19.10;14.97;;;;;;;14.14;84.71;98625.03;5067350;28;20223;-68
2022/05/01 08:13:42;;;;;;;16.73;13.47;;;;;;;14.24;84.71;98620.75;5071740;28;20216;-69
2022/05/01 08:16:09;;;;;;;19.77;14.90;;;;;;;14.40;83.20;98618.59;5069502;28;20720;-69
2022/05/01 08:21:21;;;;;;;16.30;13.53;;;;;;;14.75;83.55;98620.25;5070554;28;20562;-67
2022/05/01 08:23:48;;;;;;;17.13;13.63;;;;;;;15.01;82.92;98613.72;5061022;28;20247;-67
2022/05/01 08:26:17;;;;;;;17.73;14.10;;;;;;;15.24;81.77;98614.53;5071494;28;20246;-67
2022/05/01 08:28:45;;;;;;;17.17;13.93;;;;;;;15.39;80.96;98613.34;5071177;28;20217;-67
2022/05/01 08:31:13;;;;;;;16.83;13.20;;;;;;;15.46;80.19;98617.19;5070824;28;20227;-68
2022/05/01 08:33:40;;;;;;;18.27;13.90;;;;;;;15.52;79.83;98614.03;5070455;28;20479;-68
2022/05/01 08:36:07;;;;;;;17.53;13.70;;;;;;;15.58;79.70;98618.88;5070626;28;20221;-69
2022/05/01 08:38:35;;;;;;;18.50;14.67;;;;;;;15.63;78.67;98616.69;5070068;28;20270;-67
2022/05/01 08:41:02;;;;;;;16.90;13.73;;;;;;;15.68;76.98;98619.78;5070635;28;20217;-67
2022/05/01 08:43:31;;;;;;;16.30;14.13;;;;;;;15.73;75.47;98625.59;5072456;28;20240;-68
2022/05/01 08:46:17;;;;;;;16.43;13.17;;;;;;;15.80;75.38;98616.13;5074453;28;20236;-68
2022/05/01 08:48:58;;;;;;;15.47;12.97;;;;;;;16.04;75.33;98618.44;5065342;28;20261;-67
2022/05/01 08:51:25;;;;;;;16.93;13.80;;;;;;;16.23;73.44;98613.28;5065217;28;20391;-69
2022/05/01 08:53:53;;;;;;;18.80;13.90;;;;;;;16.33;70.81;98613.34;5075160;28;20214;-67
2022/05/01 08:56:19;;;;;;;18.47;14.53;;;;;;;16.41;69.11;98605.56;5074638;28;20222;-68
2022/05/01 08:58:48;;;;;;;16.60;13.60;;;;;;;16.52;69.52;98614.31;5074907;28;20210;-68
2022/05/01 09:01:15;;;;;;;16.47;14.20;;;;;;;16.53;67.21;98615.19;5073611;28;20218;-68
2022/05/01 09:03:44;;;;;;;16.70;13.67;;;;;;;16.54;65.82;98617.72;5074702;28;20210;-70
2022/05/01 09:06:11;;;;;;;16.80;12.90;;;;;;;16.47;65.89;98605.88;5073121;28;20214;-68
2022/05/01 09:08:38;;;;;;;14.98;13.38;;;;;;;16.42;66.61;98616.09;5068829;28;20828;-65
2022/05/01 09:13:46;;;;;;;16.40;13.17;;;;;;;16.51;69.11;98604.63;5067575;28;20682;-70
2022/05/01 09:16:14;;;;;;;19.20;13.67;;;;;;;16.71;67.69;98614.44;5063065;28;20212;-68
2022/05/01 09:18:44;;;;;;;17.20;13.57;;;;;;;16.48;67.47;98606.72;5073963;28;20242;-68
2022/05/01 09:21:11;;;;;;;13.57;11.40;;;;;;;16.36;67.75;98608.59;5066628;28;20222;-65
2022/05/01 09:23:39;;;;;;;16.07;13.87;;;;;;;16.33;65.66;98606.16;5058517;28;20227;-69
2022/05/01 09:26:08;;;;;;;17.13;13.50;;;;;;;16.31;68.37;98596.59;5071089;28;20242;-67
2022/05/01 09:28:35;;;;;;;12.93;11.63;;;;;;;16.53;66.78;98605.34;5062283;28;20210;-67
2022/05/01 09:31:02;;;;;;;14.40;11.83;;;;;;;16.80;66.21;98605.66;5064562;28;20223;-72
2022/05/01 09:33:29;;;;;;;13.57;12.13;;;;;;;16.93;62.89;98603.59;5061209;28;20213;-68
2022/05/01 09:35:56;;;;;;;14.20;11.73;;;;;;;16.83;61.52;98602.69;5071656;28;20233;-69
2022/05/01 09:38:25;;;;;;;13.20;11.50;;;;;;;16.88;62.31;98605.81;5073618;28;20219;-68
2022/05/01 09:40:54;;;;;;;13.43;10.30;;;;;;;16.99;62.11;98599.53;5073431;28;20219;-68
2022/05/01 09:43:37;;;;;;;14.27;12.23;;;;;;;17.24;63.21;98596.41;5073255;28;20234;-68
2022/05/01 09:46:17;;;;;;;11.60;10.40;;;;;;;17.62;62.23;98600.03;5072645;28;20321;-69
2022/05/01 09:48:44;;;;;;;12.87;10.63;;;;;;;17.92;61.11;98596.41;5070421;28;20683;-69
2022/05/01 09:51:15;;;;;;;12.77;11.37;;;;;;;17.96;59.95;98595.13;5071991;28;20223;-70
2022/05/01 09:53:43;;;;;;;11.30;9.93;;;;;;;18.08;60.44;98600.22;5071550;28;20277;-70
2022/05/01 09:56:10;;;;;;;11.80;10.27;;;;;;;18.16;59.55;98604.88;5070693;28;20276;-68
2022/05/01 09:58:40;;;;;;;10.60;9.50;;;;;;;18.01;59.50;98599.09;5057020;28;20269;-66
2022/05/01 10:01:11;;;;;;;10.97;9.10;;;;;;;17.92;56.32;98607.13;5064218;28;20294;-66
2022/05/01 10:03:42;;;;;;;10.50;8.93;;;;;;;17.82;54.58;98596.41;5065671;28;20222;-67
2022/05/01 10:06:10;;;;;;;10.57;9.20;;;;;;;17.78;56.60;98603.03;5063006;28;20601;-67
2022/05/01 10:08:39;;;;;;;8.47;7.50;;;;;;;17.64;56.10;98598.09;5063049;28;20220;-69
2022/05/01 10:11:06;;;;;;;11.10;9.33;;;;;;;17.69;56.49;98601.16;5066354;28;20211;-67
2022/05/01 10:13:34;;;;;;;9.73;8.37;;;;;;;17.86;58.15;98589.78;5066866;28;20247;-67
2022/05/01 10:16:03;;;;;;;12.57;9.70;;;;;;;18.01;56.50;98591.06;5065077;28;20685;-66
2022/05/01 10:18:31;;;;;;;10.03;8.17;;;;;;;18.15;56.50;98590.63;5069224;28;20215;-66
2022/05/01 10:20:58;;;;;;;8.20;7.40;;;;;;;18.35;58.16;98586.97;5073492;28;20218;-67
2022/05/01 10:23:25;;;;;;;10.70;8.23;;;;;;;18.43;57.36;98589.78;5073384;28;20632;-67
2022/05/01 10:25:56;;;;;;;11.00;9.20;;;;;;;18.42;58.24;98588.09;5073179;28;20238;-67
2022/05/01 10:28:56;;;;;;;10.00;9.00;;;;;;;18.28;56.70;98580.47;5073413;28;20215;-67
2022/05/01 10:34:43;;;;;;;10.03;8.83;;;;;;;18.12;57.26;98574.03;5063016;28;20280;-67
2022/05/01 10:37:44;;;;;;;9.73;8.57;;;;;;;18.09;58.08;98591.19;5072339;28;20685;-67
2022/05/01 10:40:11;;;;;;;11.90;9.57;;;;;;;18.03;57.92;98582.88;5062404;28;20211;-67
2022/05/01 10:42:45;;;;;;;11.23;9.80;;;;;;;18.01;58.70;98572.34;5072967;28;20262;-67
2022/05/01 10:45:43;;;;;;;11.13;9.70;;;;;;;17.99;59.31;98576.16;5072759;28;20239;-67
2022/05/01 10:48:11;;;;;;;9.27;8.27;;;;;;;18.12;61.11;98574.88;5063541;28;20269;-67
2022/05/01 10:50:39;;;;;;;9.60;7.50;;;;;;;18.32;60.72;98578.38;5072747;28;20222;-67
2022/05/01 10:53:11;;;;;;;10.90;9.10;;;;;;;18.42;57.79;98572.03;5072787;28;20222;-67
2022/05/01 10:55:45;;;;;;;9.63;8.63;;;;;;;18.39;56.07;98566.13;5060056;28;20264;-67
2022/05/01 10:58:22;;;;;;;11.87;10.40;;;;;;;18.01;53.97;98567.00;5070849;28;20211;-67
2022/05/01 11:00:49;;;;;;;12.43;10.07;;;;;;;17.67;54.00;98563.03;5072343;28;20657;-67
2022/05/01 11:03:23;;;;;;;11.63;10.43;;;;;;;17.47;53.71;98561.34;5072740;28;20216;-67
2022/05/01 11:05:54;;;;;;;10.83;9.27;;;;;;;17.41;56.25;98564.56;5072227;28;20243;-67
2022/05/01 11:08:25;;;;;;;9.33;8.30;;;;;;;17.58;57.68;98561.22;5072439;28;20295;-67
2022/05/01 11:10:54;;;;;;;9.53;8.53;;;;;;;17.84;58.42;98564.16;5072511;28;20631;-68
2022/05/01 11:13:20;;;;;;;10.70;8.63;;;;;;;17.95;54.91;98562.22;5071189;28;20215;-67
2022/05/01 11:15:49;;;;;;;8.67;7.77;;;;;;;18.06;54.77;98558.53;5072137;28;20222;-66
2022/05/01 11:18:17;;;;;;;10.80;8.20;;;;;;;18.23;52.38;98553.28;5072324;28;20280;-68
2022/05/01 11:20:44;;;;;;;9.67;8.67;;;;;;;18.28;51.16;98551.03;5071792;28;20219;-67
2022/05/01 11:23:33;;;;;;;10.37;9.07;;;;;;;18.32;50.45;98544.47;5072610;28;20218;-67
2022/05/01 11:26:17;;;;;;;8.17;7.37;;;;;;;18.37;51.87;98546.69;5069805;28;20266;-67
2022/05/01 11:28:50;;;;;;;8.60;7.17;;;;;;;18.39;52.97;98550.91;5070151;28;20589;-67
2022/05/01 11:31:45;;;;;;;10.10;8.63;;;;;;;18.47;53.06;98553.69;5072180;28;20211;-66
2022/05/01 11:34:51;;;;;;;10.17;7.97;;;;;;;18.60;51.94;98543.50;5071416;28;20566;-67
2022/05/01 11:37:19;;;;;;;8.57;7.50;;;;;;;18.66;50.27;98550.13;5061471;28;20685;-66
2022/05/01 11:40:17;;;;;;;9.77;8.77;;;;;;;18.67;49.30;98547.31;5071079;28;20214;-66
2022/05/01 11:42:44;;;;;;;10.27;8.50;;;;;;;18.35;49.00;98549.50;5071864;28;20289;-67
2022/05/01 11:45:11;;;;;;;10.53;8.87;;;;;;;18.35;51.21;98551.34;5071800;28;20235;-67
2022/05/01 11:47:38;;;;;;;9.47;8.50;;;;;;;18.21;49.95;98541.03;5071980;28;20581;-67